Aérodrome :
LOGIN :

S'inscrire | Disclaimer

   EN    FR    IT 

 










Légende :    VFR   VFR Marginal   IFR   IFR Intensif   IFR Très Intensif
Visi : 
Plafond : 
>= 8 km
>= 3000ft
5 à 8 km
1000 à 3000 ft
1500m à 5 km
500 à 1000 ft
800 à 1500m
200 à 500 ft
< 800m
< 200 ft
Symboles :   Orages  Brouillard  Fortes neiges  Fortes précipitations  Vent > 20 kt
SIGMETs :   Divers  Orages  Givrage  Turbulence  Onde Orograph.  Cendres Volcan.







- Altitude de l'aérodrome : 935 ft


EBFS - Florennes

DERNIER METAR :
  • 242025Z AUTO 01005KT 9999 OVC039/// 15/10 Q1024 BLU

METARs EXPIRÉS :
  • 241955Z AUTO 01007KT 9999 OVC040/// 15/10 Q1023 BLU
  • 241925Z AUTO 02008KT 9999 OVC042/// 16/10 Q1023 BLU
  • 241855Z AUTO 02009KT 9999 OVC042/// 16/10 Q1023 BLU
  • 241825Z AUTO 01009KT 9999 OVC040/// 17/10 Q1023 BLU
  • 241755Z AUTO 02007KT 9999 BKN040/// 17/09 Q1023 BLU

TAF TAF EBFS
Valide du 24 à 13h jusqu'au 24 à 22h UTC


241141Z 2413/2422 36008KT 9999 FEW030 SCT100
TEMPO 2413/2415 SCT030 BKN100
BECMG 2414/2416 SCT035 SCT200
BECMG 2420/2422 SCT020
Pas de NOTAMs connus pour ce terrain.



MET'MAP, la Météo Aéronautique d'un coup d'oeil ! - Copyright ORBIFLY Décembre 2007 - Disclaimer

ORBIFLY MET'MAP TEAM :

Programmation & Développement : Alexandra Zaïnal
Conception & Développement : Baudouin d'Aumeries
Co-Programmation & Développement : Marc-Olivier Méhu
Soutien technique & logistique : Manuel Goepfert

Contact : metmap@orbifly.com




SOURCES & CREDITS :

   NOAA